Time;durP1;ratioP1;P1;durP2;ratioP2;P2;SDS_P1;SDS_P2;PMS_P1;PMS_P2;Temp;Humidity;BMP_temperature;BMP_pressure;BME280_temperature;BME280_humidity;BME280_pressure;Samples;Min_cycle;Max_cycle;Signal;HPM_P1;HPM_P2
2021/04/22 00:00:51;;;;;;;2.00;1.33;;;;;;;;;;5090593;28;20028;-77
2021/04/22 00:03:17;;;;;;;1.90;1.80;;;;;;;;;;5089993;28;20525;-76
2021/04/22 00:05:44;;;;;;;1.63;1.52;;;;;;;;;;5090732;28;20052;-77
2021/04/22 00:08:10;;;;;;;2.10;1.23;;;;;;;;;;5090557;28;20038;-77
2021/04/22 00:10:36;;;;;;;1.60;1.50;;;;;;;;;;5089871;28;20035;-76
2021/04/22 00:13:02;;;;;;;1.67;1.40;;;;;;;;;;5090454;28;20032;-77
2021/04/22 00:15:28;;;;;;;2.13;1.70;;;;;;;;;;5089799;28;20503;-77
2021/04/22 00:17:55;;;;;;;2.70;1.75;;;;;;;;;;5090222;28;20036;-77
2021/04/22 00:20:21;;;;;;;1.33;1.23;;;;;;;;;;5089512;28;20024;-76
2021/04/22 00:22:47;;;;;;;1.90;1.80;;;;;;;;;;5089878;28;20034;-76
2021/04/22 00:25:14;;;;;;;1.50;1.20;;;;;;;;;;5089936;28;20038;-77
2021/04/22 00:27:40;;;;;;;2.03;1.92;;;;;;;;;;5090182;28;20505;-77
2021/04/22 00:30:08;;;;;;;1.30;1.10;;;;;;;;;;5090214;28;20034;-77
2021/04/22 00:32:34;;;;;;;0.95;0.90;;;;;;;;;;5089444;28;20032;-77
2021/04/22 00:35:01;;;;;;;2.03;1.35;;;;;;;;;;5089902;28;20032;-77
2021/04/22 00:37:27;;;;;;;1.63;1.52;;;;;;;;;;5089217;28;20028;-77
2021/04/22 00:39:53;;;;;;;1.50;1.40;;;;;;;;;;5089535;28;20139;-77
2021/04/22 00:42:19;;;;;;;1.45;1.35;;;;;;;;;;5089519;28;20035;-76
2021/04/22 00:44:47;;;;;;;2.75;2.03;;;;;;;;;;5089741;28;20107;-77
2021/04/22 00:47:14;;;;;;;1.55;1.45;;;;;;;;;;5089452;28;20028;-76
2021/04/22 00:49:41;;;;;;;2.50;1.40;;;;;;;;;;5089554;28;20055;-77
2021/04/22 00:52:07;;;;;;;1.15;1.13;;;;;;;;;;5089936;28;20016;-77
2021/04/22 00:54:34;;;;;;;1.17;1.05;;;;;;;;;;5089082;28;20450;-77
2021/04/22 00:57:00;;;;;;;1.48;1.38;;;;;;;;;;5090000;28;20059;-77
2021/04/22 00:59:26;;;;;;;1.40;1.30;;;;;;;;;;5089333;28;20035;-77
2021/04/22 01:01:52;;;;;;;1.38;1.25;;;;;;;;;;5089552;28;20062;-77
2021/04/22 01:04:18;;;;;;;1.40;1.15;;;;;;;;;;5089031;28;20032;-77
2021/04/22 01:06:44;;;;;;;1.77;1.67;;;;;;;;;;5089377;28;20085;-77
2021/04/22 01:09:14;;;;;;;1.35;1.25;;;;;;;;;;5089572;28;20047;-76
2021/04/22 01:11:40;;;;;;;1.63;1.52;;;;;;;;;;5089490;28;20024;-77
2021/04/22 01:14:07;;;;;;;1.45;1.35;;;;;;;;;;5089542;28;20085;-77
2021/04/22 01:16:33;;;;;;;1.20;1.10;;;;;;;;;;5088825;28;20622;-76
2021/04/22 01:18:59;;;;;;;1.65;1.42;;;;;;;;;;5089534;28;20434;-77
2021/04/22 01:21:28;;;;;;;5.68;2.25;;;;;;;;;;5088503;28;20031;-76
2021/04/22 01:23:54;;;;;;;1.08;1.00;;;;;;;;;;5089345;28;20028;-76
2021/04/22 01:26:24;;;;;;;1.73;1.63;;;;;;;;;;5089002;28;20039;-76
2021/04/22 01:28:51;;;;;;;2.05;1.50;;;;;;;;;;5089523;28;20020;-77
2021/04/22 01:31:18;;;;;;;1.02;1.02;;;;;;;;;;5070690;28;20368;-76
2021/04/22 01:33:44;;;;;;;2.08;1.92;;;;;;;;;;5089191;28;20110;-76
2021/04/22 01:36:10;;;;;;;1.35;1.15;;;;;;;;;;5088554;28;20375;-77
2021/04/22 01:38:37;;;;;;;1.67;1.58;;;;;;;;;;5089195;28;20646;-76
2021/04/22 01:41:04;;;;;;;1.42;1.33;;;;;;;;;;5088988;28;20055;-77
2021/04/22 01:43:30;;;;;;;1.88;1.38;;;;;;;;;;5088208;28;20032;-76
2021/04/22 01:45:56;;;;;;;1.40;1.25;;;;;;;;;;5089364;28;20044;-77
2021/04/22 01:48:23;;;;;;;1.30;1.20;;;;;;;;;;5088602;28;20043;-76
2021/04/22 01:50:50;;;;;;;1.27;1.17;;;;;;;;;;5088551;28;20040;-77
2021/04/22 01:53:16;;;;;;;1.98;1.20;;;;;;;;;;5088608;28;20051;-76
2021/04/22 01:55:43;;;;;;;1.15;1.05;;;;;;;;;;5089235;28;20422;-77
2021/04/22 01:58:11;;;;;;;1.52;1.42;;;;;;;;;;5092819;28;20047;-76
2021/04/22 02:00:40;;;;;;;1.60;1.50;;;;;;;;;;5092258;28;20103;-77
2021/04/22 02:03:06;;;;;;;1.33;1.23;;;;;;;;;;5092779;28;20032;-76
2021/04/22 02:05:33;;;;;;;1.67;1.52;;;;;;;;;;5092126;28;20181;-76
2021/04/22 02:07:59;;;;;;;1.23;1.08;;;;;;;;;;5092824;28;20343;-77
2021/04/22 02:10:25;;;;;;;1.75;1.65;;;;;;;;;;5092161;28;20120;-76
2021/04/22 02:12:51;;;;;;;1.70;1.60;;;;;;;;;;5092560;28;20028;-77
2021/04/22 02:15:22;;;;;;;2.60;1.50;;;;;;;;;;5092045;28;20028;-76
2021/04/22 02:17:49;;;;;;;1.15;1.10;;;;;;;;;;5092766;28;20068;-77
2021/04/22 02:20:16;;;;;;;1.33;1.27;;;;;;;;;;5091912;28;20458;-77
2021/04/22 02:22:42;;;;;;;1.65;1.55;;;;;;;;;;5092459;28;20020;-77
2021/04/22 02:25:10;;;;;;;1.60;1.50;;;;;;;;;;5092500;28;20563;-76
2021/04/22 02:27:36;;;;;;;1.88;1.50;;;;;;;;;;5092243;28;20090;-77
2021/04/22 02:30:05;;;;;;;2.40;1.30;;;;;;;;;;5092324;28;20036;-77
2021/04/22 02:32:31;;;;;;;2.10;2.00;;;;;;;;;;5091510;28;20032;-77
2021/04/22 02:34:57;;;;;;;1.73;1.20;;;;;;;;;;5092550;28;20403;-77
2021/04/22 02:37:23;;;;;;;1.85;1.58;;;;;;;;;;5091262;28;20028;-77
2021/04/22 02:39:49;;;;;;;1.65;1.55;;;;;;;;;;5091919;28;20051;-77
2021/04/22 02:42:15;;;;;;;1.85;1.75;;;;;;;;;;5091828;28;20035;-76
2021/04/22 02:44:42;;;;;;;1.40;1.30;;;;;;;;;;5091794;28;20467;-77
2021/04/22 02:47:08;;;;;;;2.03;1.88;;;;;;;;;;5092043;28;20379;-77
2021/04/22 02:49:34;;;;;;;1.38;1.27;;;;;;;;;;5091416;28;20028;-77
2021/04/22 02:52:00;;;;;;;1.42;1.33;;;;;;;;;;5091984;28;20043;-77
2021/04/22 02:54:26;;;;;;;1.58;1.50;;;;;;;;;;5091246;28;20032;-77
2021/04/22 02:56:52;;;;;;;1.52;1.38;;;;;;;;;;5092292;28;20036;-77
2021/04/22 02:59:18;;;;;;;1.73;1.63;;;;;;;;;;5091243;28;20029;-76
2021/04/22 03:01:44;;;;;;;1.45;1.35;;;;;;;;;;5091634;28;20016;-77
2021/04/22 03:04:10;;;;;;;1.15;1.05;;;;;;;;;;5091643;28;20062;-77
2021/04/22 03:06:36;;;;;;;1.83;1.73;;;;;;;;;;5091055;28;20031;-77
2021/04/22 03:09:03;;;;;;;1.65;1.55;;;;;;;;;;5090416;28;20031;-77
2021/04/22 03:11:29;;;;;;;1.33;1.23;;;;;;;;;;5091140;28;20027;-76
2021/04/22 03:13:55;;;;;;;1.10;1.10;;;;;;;;;;5091464;28;20529;-77
2021/04/22 03:16:22;;;;;;;1.20;1.10;;;;;;;;;;5090831;28;20402;-77
2021/04/22 03:18:48;;;;;;;1.52;1.33;;;;;;;;;;5091538;28;20081;-76
2021/04/22 03:21:14;;;;;;;1.30;1.25;;;;;;;;;;5091213;28;20028;-76
2021/04/22 03:23:40;;;;;;;1.52;1.20;;;;;;;;;;5090906;28;20024;-76
2021/04/22 03:26:07;;;;;;;1.70;1.33;;;;;;;;;;5091362;28;20047;-77
2021/04/22 03:28:33;;;;;;;1.08;1.02;;;;;;;;;;5090491;28;20115;-76
2021/04/22 03:30:59;;;;;;;1.13;1.13;;;;;;;;;;5090919;28;20024;-76
2021/04/22 03:33:25;;;;;;;1.70;1.60;;;;;;;;;;5090535;28;20035;-76
2021/04/22 03:35:51;;;;;;;1.38;1.15;;;;;;;;;;5090918;28;20047;-76
2021/04/22 03:38:17;;;;;;;1.70;1.60;;;;;;;;;;5090505;28;20032;-76
2021/04/22 03:40:43;;;;;;;1.85;1.75;;;;;;;;;;5090783;28;20121;-76
2021/04/22 03:43:09;;;;;;;2.03;1.83;;;;;;;;;;5091195;28;20036;-76
2021/04/22 03:45:35;;;;;;;1.63;1.35;;;;;;;;;;5089927;28;20445;-76
2021/04/22 03:48:02;;;;;;;1.20;1.15;;;;;;;;;;5091263;28;20031;-76
2021/04/22 03:50:28;;;;;;;6.32;2.38;;;;;;;;;;5089924;28;20035;-76
2021/04/22 03:52:54;;;;;;;1.38;1.33;;;;;;;;;;5090805;28;20028;-76
2021/04/22 03:55:20;;;;;;;1.55;1.45;;;;;;;;;;5090101;28;20394;-75
2021/04/22 03:57:46;;;;;;;1.50;1.40;;;;;;;;;;5091147;28;20070;-76
2021/04/22 04:00:15;;;;;;;1.83;1.33;;;;;;;;;;5090245;28;20376;-76
2021/04/22 04:02:41;;;;;;;1.58;1.48;;;;;;;;;;5090316;28;20084;-76
2021/04/22 04:05:08;;;;;;;1.50;1.40;;;;;;;;;;5090676;28;20099;-76
2021/04/22 04:07:34;;;;;;;1.50;1.40;;;;;;;;;;5089961;28;20032;-76
2021/04/22 04:10:00;;;;;;;2.42;2.08;;;;;;;;;;5090209;28;20141;-76
2021/04/22 04:12:27;;;;;;;1.60;1.45;;;;;;;;;;5089559;28;20024;-76
2021/04/22 04:14:53;;;;;;;2.58;1.65;;;;;;;;;;5090282;28;20054;-76
2021/04/22 04:17:19;;;;;;;1.42;1.33;;;;;;;;;;5089534;28;20387;-76
2021/04/22 04:19:45;;;;;;;1.75;1.48;;;;;;;;;;5089680;28;20023;-76
2021/04/22 04:22:12;;;;;;;1.40;1.30;;;;;;;;;;5090355;28;20116;-76
2021/04/22 04:24:38;;;;;;;1.65;1.55;;;;;;;;;;5089817;28;20038;-76
2021/04/22 04:27:04;;;;;;;1.10;1.00;;;;;;;;;;5090204;28;20478;-76
2021/04/22 04:29:30;;;;;;;1.30;1.20;;;;;;;;;;5089125;28;20020;-76
2021/04/22 04:31:56;;;;;;;4.25;1.90;;;;;;;;;;5090042;28;20032;-76
2021/04/22 04:34:22;;;;;;;1.08;1.08;;;;;;;;;;5089001;28;20028;-76
2021/04/22 04:36:48;;;;;;;1.23;1.13;;;;;;;;;;5089899;28;20104;-76
2021/04/22 04:39:15;;;;;;;1.48;1.35;;;;;;;;;;5089109;28;20098;-76
2021/04/22 04:41:41;;;;;;;1.08;0.98;;;;;;;;;;5089741;28;20038;-76
2021/04/22 04:44:07;;;;;;;1.35;1.27;;;;;;;;;;5090108;28;20016;-77
2021/04/22 04:46:34;;;;;;;1.20;1.10;;;;;;;;;;5089594;28;20032;-76
2021/04/22 04:49:01;;;;;;;1.23;1.13;;;;;;;;;;5089670;28;20024;-76
2021/04/22 04:51:27;;;;;;;1.65;1.40;;;;;;;;;;5089385;28;20039;-76
2021/04/22 04:53:54;;;;;;;1.23;1.10;;;;;;;;;;5089945;28;20024;-76
2021/04/22 04:56:21;;;;;;;1.55;1.20;;;;;;;;;;5088954;28;20291;-76
2021/04/22 04:58:47;;;;;;;1.40;1.30;;;;;;;;;;5089773;28;20032;-76
2021/04/22 05:01:14;;;;;;;1.35;1.25;;;;;;;;;;5089460;28;20039;-76
2021/04/22 05:03:40;;;;;;;1.27;1.17;;;;;;;;;;5089867;28;20031;-76
2021/04/22 05:06:07;;;;;;;2.38;1.90;;;;;;;;;;5089187;28;20161;-76
2021/04/22 05:08:33;;;;;;;1.35;1.25;;;;;;;;;;5089157;28;20118;-76
2021/04/22 05:11:00;;;;;;;0.93;0.90;;;;;;;;;;5089926;28;20108;-76
2021/04/22 05:13:26;;;;;;;1.60;1.50;;;;;;;;;;5088663;28;20024;-76
2021/04/22 05:15:52;;;;;;;1.38;1.30;;;;;;;;;;5089635;28;20074;-76
2021/04/22 05:18:18;;;;;;;1.15;1.05;;;;;;;;;;5089257;28;20470;-76
2021/04/22 05:20:44;;;;;;;1.25;1.23;;;;;;;;;;5089252;28;20020;-76
2021/04/22 05:23:10;;;;;;;1.50;1.40;;;;;;;;;;5089652;28;20047;-76
2021/04/22 05:25:36;;;;;;;1.25;1.15;;;;;;;;;;5089266;28;20093;-76
2021/04/22 05:28:02;;;;;;;1.48;1.13;;;;;;;;;;5089406;28;20027;-76
2021/04/22 05:30:28;;;;;;;1.25;1.17;;;;;;;;;;5088544;28;20097;-76
2021/04/22 05:32:54;;;;;;;1.55;1.33;;;;;;;;;;5092567;28;20048;-76
2021/04/22 05:35:21;;;;;;;1.85;1.75;;;;;;;;;;5092694;28;20066;-76
2021/04/22 05:37:47;;;;;;;1.05;1.05;;;;;;;;;;5093471;28;20040;-76
2021/04/22 05:40:13;;;;;;;1.10;1.10;;;;;;;;;;5092553;28;20465;-76
2021/04/22 05:42:39;;;;;;;0.90;0.90;;;;;;;;;;5093072;28;20073;-76
2021/04/22 05:45:06;;;;;;;1.80;1.50;;;;;;;;;;5093257;28;20028;-76
2021/04/22 05:47:32;;;;;;;1.15;1.05;;;;;;;;;;5091502;28;20102;-76
2021/04/22 05:49:58;;;;;;;1.73;1.63;;;;;;;;;;5089980;28;20035;-77
2021/04/22 05:52:24;;;;;;;2.10;1.70;;;;;;;;;;5092772;28;20232;-77
2021/04/22 05:54:50;;;;;;;1.98;1.60;;;;;;;;;;5092757;28;20066;-76
2021/04/22 05:57:16;;;;;;;1.85;1.75;;;;;;;;;;5089932;28;20075;-76
2021/04/22 05:59:42;;;;;;;3.08;1.70;;;;;;;;;;5085784;28;20024;-76
2021/04/22 06:02:08;;;;;;;4.07;2.05;;;;;;;;;;5084447;28;20590;-76
2021/04/22 06:04:34;;;;;;;1.83;1.73;;;;;;;;;;5072089;28;20032;-75
2021/04/22 06:07:00;;;;;;;1.67;1.58;;;;;;;;;;5084953;28;20032;-75
2021/04/22 06:09:26;;;;;;;1.90;1.80;;;;;;;;;;5087553;28;20442;-75
2021/04/22 06:11:53;;;;;;;2.50;2.30;;;;;;;;;;5093837;28;20031;-75
2021/04/22 06:14:19;;;;;;;3.78;2.95;;;;;;;;;;5083868;28;20530;-75
2021/04/22 06:16:45;;;;;;;3.58;2.75;;;;;;;;;;5085695;28;20481;-75
2021/04/22 06:19:11;;;;;;;5.82;2.72;;;;;;;;;;5085502;28;20028;-75
2021/04/22 06:21:37;;;;;;;4.07;3.00;;;;;;;;;;5079294;28;20040;-75
2021/04/22 06:24:04;;;;;;;5.25;3.05;;;;;;;;;;5089203;28;20020;-76
2021/04/22 06:26:31;;;;;;;5.07;4.20;;;;;;;;;;5098262;28;20024;-76
2021/04/22 06:29:01;;;;;;;3.22;2.58;;;;;;;;;;5111848;28;20091;-75
2021/04/22 06:31:28;;;;;;;3.05;2.75;;;;;;;;;;5092518;28;20031;-76
2021/04/22 06:33:54;;;;;;;6.32;3.25;;;;;;;;;;5072445;28;20086;-75
2021/04/22 06:36:21;;;;;;;4.32;2.08;;;;;;;;;;5103526;28;20031;-76
2021/04/22 06:38:47;;;;;;;2.40;2.20;;;;;;;;;;5080357;28;20043;-75
2021/04/22 06:41:13;;;;;;;3.50;3.10;;;;;;;;;;5098256;28;20621;-75
2021/04/22 06:43:39;;;;;;;3.58;2.72;;;;;;;;;;5107232;28;20597;-76
2021/04/22 06:46:05;;;;;;;2.38;2.17;;;;;;;;;;5091737;28;20032;-76
2021/04/22 06:48:31;;;;;;;4.72;2.60;;;;;;;;;;5062007;28;20467;-75
2021/04/22 06:50:57;;;;;;;3.92;3.15;;;;;;;;;;5083464;28;20101;-76
2021/04/22 06:53:23;;;;;;;3.33;2.60;;;;;;;;;;5075838;28;20028;-77
2021/04/22 06:55:49;;;;;;;2.17;2.03;;;;;;;;;;5088317;28;20039;-74
2021/04/22 06:58:15;;;;;;;3.38;2.35;;;;;;;;;;5083886;28;20100;-74
2021/04/22 07:00:43;;;;;;;3.63;2.50;;;;;;;;;;5081163;28;20042;-76
2021/04/22 07:03:09;;;;;;;4.68;2.60;;;;;;;;;;5083941;28;20029;-75
2021/04/22 07:05:36;;;;;;;2.97;2.72;;;;;;;;;;5089396;28;20050;-76
2021/04/22 07:08:02;;;;;;;3.65;2.58;;;;;;;;;;5083899;28;21724;-76
2021/04/22 07:10:28;;;;;;;4.55;2.25;;;;;;;;;;5081322;28;20540;-76
2021/04/22 07:12:54;;;;;;;2.97;2.78;;;;;;;;;;5088873;28;20445;-78
2021/04/22 07:15:20;;;;;;;8.52;2.20;;;;;;;;;;5081703;28;20111;-75
2021/04/22 07:17:46;;;;;;;2.22;2.03;;;;;;;;;;5086857;28;20516;-74
2021/04/22 07:20:16;;;;;;;1.58;1.45;;;;;;;;;;5090314;28;20035;-74
2021/04/22 07:22:43;;;;;;;3.00;2.15;;;;;;;;;;5097773;28;20042;-77
2021/04/22 07:25:11;;;;;;;3.00;2.10;;;;;;;;;;5099475;28;20040;-75
2021/04/22 07:27:37;;;;;;;2.17;2.08;;;;;;;;;;5091859;28;20110;-76
2021/04/22 07:30:04;;;;;;;2.55;2.25;;;;;;;;;;5081513;28;20046;-75
2021/04/22 07:32:30;;;;;;;2.88;2.03;;;;;;;;;;5068890;28;20541;-76
2021/04/22 07:34:56;;;;;;;2.60;1.73;;;;;;;;;;5096059;28;20067;-76
2021/04/22 07:37:22;;;;;;;2.95;1.85;;;;;;;;;;5084077;28;20036;-75
2021/04/22 07:39:48;;;;;;;3.05;2.60;;;;;;;;;;5096030;28;20105;-76
2021/04/22 07:42:15;;;;;;;2.83;1.90;;;;;;;;;;5083414;28;20036;-75
2021/04/22 07:44:41;;;;;;;5.13;2.92;;;;;;;;;;5088990;28;20587;-75
2021/04/22 07:47:08;;;;;;;2.33;1.90;;;;;;;;;;5063814;28;20036;-77
2021/04/22 07:49:34;;;;;;;2.22;2.00;;;;;;;;;;5064955;28;20035;-78
2021/04/22 07:52:01;;;;;;;3.83;1.95;;;;;;;;;;5097850;28;20363;-76
2021/04/22 07:54:27;;;;;;;2.63;2.40;;;;;;;;;;5082581;28;20107;-77
2021/04/22 07:56:53;;;;;;;3.45;2.08;;;;;;;;;;5070194;28;20050;-77
2021/04/22 07:59:19;;;;;;;3.03;2.53;;;;;;;;;;5093354;28;20130;-76
2021/04/22 08:01:45;;;;;;;5.80;2.63;;;;;;;;;;5091462;28;20110;-76
2021/04/22 08:04:11;;;;;;;3.72;2.25;;;;;;;;;;5095415;28;20081;-77
2021/04/22 08:06:37;;;;;;;2.75;1.80;;;;;;;;;;5087934;28;20226;-77
2021/04/22 08:09:04;;;;;;;3.35;2.85;;;;;;;;;;5080201;28;20043;-78
2021/04/22 08:11:31;;;;;;;2.55;2.28;;;;;;;;;;5092265;28;20308;-77
2021/04/22 08:13:57;;;;;;;2.92;2.55;;;;;;;;;;5089664;28;20027;-78
2021/04/22 08:16:23;;;;;;;5.03;2.33;;;;;;;;;;5093381;28;20058;-83
2021/04/22 08:18:49;;;;;;;2.97;2.72;;;;;;;;;;5094749;28;20088;-81
2021/04/22 08:21:16;;;;;;;2.30;1.88;;;;;;;;;;5088394;28;20031;-80
2021/04/22 08:23:42;;;;;;;2.75;2.20;;;;;;;;;;5101973;28;20471;-80
2021/04/22 08:26:09;;;;;;;4.45;2.15;;;;;;;;;;5097777;28;20027;-82
2021/04/22 08:28:36;;;;;;;4.15;2.17;;;;;;;;;;5097967;28;20093;-81
2021/04/22 08:31:02;;;;;;;2.00;1.73;;;;;;;;;;5096873;28;20055;-80
2021/04/22 08:33:30;;;;;;;2.40;2.05;;;;;;;;;;5090343;28;20063;-78
2021/04/22 08:35:57;;;;;;;2.10;1.90;;;;;;;;;;5098007;28;20023;-79
2021/04/22 08:38:23;;;;;;;2.30;1.88;;;;;;;;;;5095697;28;20044;-76
2021/04/22 08:40:50;;;;;;;4.68;1.50;;;;;;;;;;5097314;28;20108;-77
2021/04/22 08:43:16;;;;;;;4.05;2.03;;;;;;;;;;5095815;28;20028;-77
2021/04/22 08:45:43;;;;;;;3.40;1.73;;;;;;;;;;5080044;28;20056;-77
2021/04/22 08:48:11;;;;;;;2.95;1.10;;;;;;;;;;5066661;28;20032;-77
2021/04/22 08:50:37;;;;;;;2.42;1.77;;;;;;;;;;5064376;28;20025;-78
2021/04/22 08:53:06;;;;;;;2.40;1.75;;;;;;;;;;5093485;28;20055;-74
2021/04/22 08:55:33;;;;;;;2.45;2.08;;;;;;;;;;5066556;28;20051;-75
2021/04/22 08:58:00;;;;;;;2.78;1.83;;;;;;;;;;5102080;28;20031;-77
2021/04/22 09:00:27;;;;;;;1.92;1.55;;;;;;;;;;5098376;28;20073;-77
2021/04/22 09:02:53;;;;;;;3.15;2.05;;;;;;;;;;5091714;28;20024;-75
2021/04/22 09:05:20;;;;;;;1.50;1.40;;;;;;;;;;5083008;28;20031;-77
2021/04/22 09:07:46;;;;;;;1.63;1.52;;;;;;;;;;5069125;28;20029;-76
2021/04/22 09:10:13;;;;;;;1.55;1.45;;;;;;;;;;5072701;28;20047;-76
2021/04/22 09:12:40;;;;;;;2.00;1.50;;;;;;;;;;5083761;28;20040;-77
2021/04/22 09:15:11;;;;;;;3.45;2.30;;;;;;;;;;5067648;28;20586;-78
2021/04/22 09:17:37;;;;;;;2.15;1.95;;;;;;;;;;5099177;28;20047;-77
2021/04/22 09:20:05;;;;;;;2.78;1.42;;;;;;;;;;5100308;28;20039;-77
2021/04/22 09:22:35;;;;;;;1.73;1.63;;;;;;;;;;5063333;28;20051;-77
2021/04/22 09:25:10;;;;;;;2.72;2.53;;;;;;;;;;5060565;28;20036;-77
2021/04/22 09:27:36;;;;;;;1.80;1.70;;;;;;;;;;5061422;28;20036;-76
2021/04/22 09:30:04;;;;;;;1.98;1.88;;;;;;;;;;5091267;28;20039;-77
2021/04/22 09:32:33;;;;;;;1.80;1.70;;;;;;;;;;5079662;28;20031;-77
2021/04/22 09:35:01;;;;;;;2.47;2.05;;;;;;;;;;5099356;28;20040;-77
2021/04/22 09:37:38;;;;;;;1.75;1.65;;;;;;;;;;5075140;28;20097;-78
2021/04/22 09:40:19;;;;;;;2.70;1.55;;;;;;;;;;5071944;28;20052;-78
2021/04/22 09:42:47;;;;;;;6.00;1.50;;;;;;;;;;5083178;28;20100;-79
2021/04/22 09:45:14;;;;;;;1.70;1.60;;;;;;;;;;5079292;28;20031;-77
2021/04/22 09:47:40;;;;;;;2.03;1.63;;;;;;;;;;5084151;28;20024;-79
2021/04/22 09:50:12;;;;;;;3.13;1.70;;;;;;;;;;5090031;28;20024;-76
2021/04/22 09:52:41;;;;;;;1.95;1.63;;;;;;;;;;5084836;28;20035;-78
2021/04/22 09:55:11;;;;;;;2.08;1.80;;;;;;;;;;5095178;28;20092;-76
2021/04/22 09:57:37;;;;;;;4.15;1.63;;;;;;;;;;5095712;28;20079;-79
2021/04/22 10:00:07;;;;;;;1.80;1.67;;;;;;;;;;5092873;28;20035;-78
2021/04/22 10:02:51;;;;;;;2.80;1.98;;;;;;;;;;5084429;28;20043;-78
2021/04/22 10:05:21;;;;;;;3.50;2.10;;;;;;;;;;5086958;28;20028;-79
2021/04/22 10:07:48;;;;;;;1.70;1.60;;;;;;;;;;5087043;28;20015;-79
2021/04/22 10:10:23;;;;;;;2.55;2.35;;;;;;;;;;5099180;28;20187;-77
2021/04/22 10:12:58;;;;;;;3.55;2.17;;;;;;;;;;5086994;28;20681;-78
2021/04/22 10:15:24;;;;;;;1.67;1.45;;;;;;;;;;5080752;28;20028;-78
2021/04/22 10:17:55;;;;;;;2.08;1.88;;;;;;;;;;5086475;28;20039;-78
2021/04/22 10:20:21;;;;;;;2.25;1.77;;;;;;;;;;5083400;28;20393;-78
2021/04/22 10:22:48;;;;;;;1.85;1.38;;;;;;;;;;5090103;28;20024;-77
2021/04/22 10:25:18;;;;;;;4.85;2.25;;;;;;;;;;5091174;28;20036;-76
2021/04/22 10:27:45;;;;;;;1.80;1.70;;;;;;;;;;5091456;28;20028;-81
2021/04/22 10:30:13;;;;;;;5.47;1.77;;;;;;;;;;5091195;28;20024;-76
2021/04/22 10:32:40;;;;;;;3.42;2.10;;;;;;;;;;5097038;28;20328;-78
2021/04/22 10:35:06;;;;;;;2.10;1.75;;;;;;;;;;5082585;28;20024;-77
2021/04/22 10:37:33;;;;;;;5.68;2.00;;;;;;;;;;5097635;28;20490;-78
2021/04/22 10:39:59;;;;;;;1.55;1.45;;;;;;;;;;5104875;28;20134;-77
2021/04/22 10:42:26;;;;;;;2.13;1.92;;;;;;;;;;5104367;28;20538;-78
2021/04/22 10:44:52;;;;;;;3.92;2.22;;;;;;;;;;5105309;28;20024;-77
2021/04/22 10:47:22;;;;;;;3.28;1.70;;;;;;;;;;5104340;28;20610;-78
2021/04/22 10:49:49;;;;;;;1.73;1.63;;;;;;;;;;5075989;28;20036;-78
2021/04/22 10:52:16;;;;;;;2.90;1.70;;;;;;;;;;5087556;28;20495;-78
2021/04/22 10:54:43;;;;;;;2.83;2.25;;;;;;;;;;5065098;28;20029;-78
2021/04/22 10:57:14;;;;;;;2.13;1.77;;;;;;;;;;5064186;28;20438;-78
2021/04/22 10:59:40;;;;;;;2.33;1.55;;;;;;;;;;5083663;28;20146;-77
2021/04/22 11:02:17;;;;;;;1.83;1.73;;;;;;;;;;5058044;28;20032;-78
2021/04/22 11:04:43;;;;;;;1.88;1.55;;;;;;;;;;5059819;28;20043;-78
2021/04/22 11:07:24;;;;;;;1.65;1.55;;;;;;;;;;5069043;28;20813;-78
2021/04/22 11:09:51;;;;;;;1.67;1.58;;;;;;;;;;5060520;28;20029;-78
2021/04/22 11:12:26;;;;;;;2.22;1.80;;;;;;;;;;5058649;28;20029;-77
2021/04/22 11:14:52;;;;;;;2.08;1.98;;;;;;;;;;5062280;28;20024;-78
2021/04/22 11:17:20;;;;;;;1.85;1.60;;;;;;;;;;5084765;28;20044;-77
2021/04/22 11:19:47;;;;;;;1.85;1.75;;;;;;;;;;5090709;28;20047;-78
2021/04/22 11:22:16;;;;;;;1.92;1.60;;;;;;;;;;5064262;28;20499;-78
2021/04/22 11:24:54;;;;;;;3.30;1.90;;;;;;;;;;5088509;28;20042;-79
2021/04/22 11:27:20;;;;;;;3.78;1.40;;;;;;;;;;5057410;28;20035;-78
2021/04/22 11:29:46;;;;;;;1.80;1.70;;;;;;;;;;5057457;28;20372;-80
2021/04/22 11:32:17;;;;;;;5.25;1.80;;;;;;;;;;5091473;28;20115;-77
2021/04/22 11:34:43;;;;;;;2.10;1.63;;;;;;;;;;5074067;28;20740;-77
2021/04/22 11:37:14;;;;;;;2.65;2.05;;;;;;;;;;5063753;28;20552;-77
2021/04/22 11:39:40;;;;;;;3.10;1.95;;;;;;;;;;5079056;28;20075;-78
2021/04/22 11:42:06;;;;;;;2.42;2.05;;;;;;;;;;5084831;28;20031;-77
2021/04/22 11:44:40;;;;;;;5.07;2.03;;;;;;;;;;5083783;28;20024;-78
2021/04/22 11:47:16;;;;;;;2.97;1.98;;;;;;;;;;5081445;28;20172;-78
2021/04/22 11:49:43;;;;;;;2.00;1.90;;;;;;;;;;5085647;28;20522;-78
2021/04/22 11:52:19;;;;;;;3.35;1.70;;;;;;;;;;5081527;28;20142;-78
2021/04/22 11:54:46;;;;;;;2.53;1.67;;;;;;;;;;5081353;28;20020;-78
2021/04/22 11:57:12;;;;;;;3.72;2.42;;;;;;;;;;5078355;28;20079;-77
2021/04/22 11:59:38;;;;;;;2.20;2.05;;;;;;;;;;5075006;28;20026;-77
2021/04/22 12:02:09;;;;;;;1.83;1.70;;;;;;;;;;5058740;28;20606;-78
2021/04/22 12:04:40;;;;;;;2.25;1.85;;;;;;;;;;5070620;28;20826;-75
2021/04/22 12:07:11;;;;;;;2.10;1.63;;;;;;;;;;5074321;28;20028;-78
2021/04/22 12:09:38;;;;;;;2.10;1.90;;;;;;;;;;5076756;28;20020;-78
2021/04/22 12:12:16;;;;;;;2.55;2.08;;;;;;;;;;5078876;28;20058;-78
2021/04/22 12:14:44;;;;;;;3.17;2.25;;;;;;;;;;5079202;28;20024;-78
2021/04/22 12:17:20;;;;;;;4.70;1.83;;;;;;;;;;5079599;28;20557;-77
2021/04/22 12:19:49;;;;;;;1.85;1.15;;;;;;;;;;5086843;28;20032;-78
2021/04/22 12:22:26;;;;;;;2.20;2.00;;;;;;;;;;5086569;28;20028;-78
2021/04/22 12:24:52;;;;;;;3.70;2.13;;;;;;;;;;5087658;28;20728;-78
2021/04/22 12:27:35;;;;;;;2.72;1.73;;;;;;;;;;5084984;28;20414;-77
2021/04/22 12:30:03;;;;;;;2.67;1.83;;;;;;;;;;5085986;28;20028;-78
2021/04/22 12:32:30;;;;;;;1.90;1.80;;;;;;;;;;5086005;28;20107;-77
2021/04/22 12:34:56;;;;;;;1.50;1.40;;;;;;;;;;5102910;28;20023;-77
2021/04/22 12:37:23;;;;;;;1.58;1.48;;;;;;;;;;5104837;28;20089;-77
2021/04/22 12:39:52;;;;;;;2.90;1.65;;;;;;;;;;5105714;28;20040;-77
2021/04/22 12:42:18;;;;;;;3.47;1.90;;;;;;;;;;5087737;28;20162;-77
2021/04/22 12:45:02;;;;;;;2.28;2.05;;;;;;;;;;5086278;28;20046;-84
2021/04/22 12:47:47;;;;;;;2.35;1.75;;;;;;;;;;5085084;28;20020;-83
2021/04/22 12:50:16;;;;;;;2.35;2.13;;;;;;;;;;5086022;28;20015;-85
2021/04/22 12:52:42;;;;;;;1.52;1.42;;;;;;;;;;5076785;28;20043;-82
2021/04/22 12:55:13;;;;;;;3.10;2.60;;;;;;;;;;5079754;28;20456;-77
2021/04/22 12:57:40;;;;;;;2.10;1.52;;;;;;;;;;5080997;28;20047;-78
2021/04/22 13:00:08;;;;;;;1.85;1.70;;;;;;;;;;5078583;28;20038;-77
2021/04/22 13:02:35;;;;;;;2.08;1.73;;;;;;;;;;5064656;28;20071;-77
2021/04/22 13:05:09;;;;;;;4.90;1.70;;;;;;;;;;5073137;28;20413;-78
2021/04/22 13:07:37;;;;;;;3.60;1.98;;;;;;;;;;5076869;28;20028;-78
2021/04/22 13:10:04;;;;;;;1.95;1.33;;;;;;;;;;5087058;28;20020;-82
2021/04/22 13:12:30;;;;;;;2.33;1.95;;;;;;;;;;5071742;28;20055;-83
2021/04/22 13:14:56;;;;;;;1.50;1.40;;;;;;;;;;5079239;28;20033;-76
2021/04/22 13:17:26;;;;;;;2.70;2.10;;;;;;;;;;5087707;28;20383;-78
2021/04/22 13:19:52;;;;;;;2.50;2.20;;;;;;;;;;5095560;28;20038;-79
2021/04/22 13:22:18;;;;;;;5.32;1.98;;;;;;;;;;5072890;28;20577;-77
2021/04/22 13:24:44;;;;;;;2.53;2.10;;;;;;;;;;5076512;28;20449;-76
2021/04/22 13:27:12;;;;;;;4.25;2.45;;;;;;;;;;5079482;28;20023;-76
2021/04/22 13:29:46;;;;;;;6.28;3.05;;;;;;;;;;5081620;28;20108;-77
2021/04/22 13:32:12;;;;;;;7.22;3.15;;;;;;;;;;5056588;28;20024;-77
2021/04/22 13:34:40;;;;;;;6.07;2.70;;;;;;;;;;5079769;28;20521;-77
2021/04/22 13:37:06;;;;;;;5.13;2.92;;;;;;;;;;5086579;28;20024;-75
2021/04/22 13:39:34;;;;;;;4.88;2.35;;;;;;;;;;5078040;28;20090;-76
2021/04/22 13:42:00;;;;;;;4.45;2.22;;;;;;;;;;5082498;28;20027;-75
2021/04/22 13:44:28;;;;;;;4.68;3.05;;;;;;;;;;5084186;28;20028;-74
2021/04/22 13:46:54;;;;;;;6.32;2.25;;;;;;;;;;5076854;28;20538;-77
2021/04/22 13:49:33;;;;;;;5.72;2.03;;;;;;;;;;5066881;28;20495;-75
2021/04/22 13:52:07;;;;;;;5.15;2.20;;;;;;;;;;5090150;28;20024;-76
2021/04/22 13:54:34;;;;;;;9.95;2.75;;;;;;;;;;5074500;28;20530;-77
2021/04/22 13:57:09;;;;;;;6.30;2.90;;;;;;;;;;5070857;28;20111;-76
2021/04/22 13:59:36;;;;;;;3.53;2.75;;;;;;;;;;5093075;28;20044;-76
2021/04/22 14:02:03;;;;;;;4.68;2.58;;;;;;;;;;5103887;28;20036;-77
2021/04/22 14:04:29;;;;;;;5.32;2.22;;;;;;;;;;5076428;28;20044;-76
2021/04/22 14:06:56;;;;;;;6.10;2.50;;;;;;;;;;5065712;28;20024;-76
2021/04/22 14:09:26;;;;;;;32.10;3.47;;;;;;;;;;5063269;28;20633;-76
2021/04/22 14:11:52;;;;;;;2.92;2.45;;;;;;;;;;5071772;28;20711;-80
2021/04/22 14:14:21;;;;;;;3.97;1.83;;;;;;;;;;5085703;28;20027;-75
2021/04/22 14:16:47;;;;;;;3.75;2.47;;;;;;;;;;5094325;28;20039;-76
2021/04/22 14:19:14;;;;;;;3.22;2.13;;;;;;;;;;5085833;28;20428;-76
2021/04/22 14:21:41;;;;;;;3.67;2.28;;;;;;;;;;5095955;28;20035;-76
2021/04/22 14:24:07;;;;;;;5.60;2.47;;;;;;;;;;5087711;28;20032;-76
2021/04/22 14:26:34;;;;;;;2.28;1.95;;;;;;;;;;5085839;28;20393;-77
2021/04/22 14:29:00;;;;;;;6.85;1.77;;;;;;;;;;5098438;28;20111;-77
2021/04/22 14:31:27;;;;;;;5.03;1.90;;;;;;;;;;5099111;28;20027;-80
2021/04/22 14:33:53;;;;;;;2.42;2.22;;;;;;;;;;5088663;28;20616;-77
2021/04/22 14:36:19;;;;;;;4.95;1.70;;;;;;;;;;5094852;28;20066;-76
2021/04/22 14:38:46;;;;;;;2.38;1.95;;;;;;;;;;5095695;28;20127;-76
2021/04/22 14:41:12;;;;;;;2.85;1.95;;;;;;;;;;5061123;28;20085;-77
2021/04/22 14:43:38;;;;;;;3.17;1.88;;;;;;;;;;5086476;28;20073;-76